sensor_id;sensor_type;location;lat;lon;timestamp;P1;durP1;ratioP1;P2;durP2;ratioP2
50363;SDS011;36272;59.400;17.982;2022-07-06T00:01:27;4.68;;;1.02;;
50363;SDS011;36272;59.400;17.982;2022-07-06T00:06:28;5.35;;;1.02;;
50363;SDS011;36272;59.400;17.982;2022-07-06T00:11:30;4.95;;;1.35;;
50363;SDS011;36272;59.400;17.982;2022-07-06T00:16:32;3.72;;;1.00;;
50363;SDS011;36272;59.400;17.982;2022-07-06T00:21:34;2.97;;;0.88;;
50363;SDS011;36272;59.400;17.982;2022-07-06T00:26:36;7.95;;;1.38;;
50363;SDS011;36272;59.400;17.982;2022-07-06T00:31:37;3.95;;;1.58;;
50363;SDS011;36272;59.400;17.982;2022-07-06T00:36:39;6.63;;;1.00;;
50363;SDS011;36272;59.400;17.982;2022-07-06T00:41:41;4.90;;;1.40;;
50363;SDS011;36272;59.400;17.982;2022-07-06T00:46:47;6.88;;;1.40;;
50363;SDS011;36272;59.400;17.982;2022-07-06T00:51:49;7.93;;;1.25;;
50363;SDS011;36272;59.400;17.982;2022-07-06T00:56:50;3.15;;;1.08;;
50363;SDS011;36272;59.400;17.982;2022-07-06T01:01:52;7.15;;;1.33;;
50363;SDS011;36272;59.400;17.982;2022-07-06T01:06:54;5.53;;;1.25;;
50363;SDS011;36272;59.400;17.982;2022-07-06T01:11:57;8.45;;;1.70;;
50363;SDS011;36272;59.400;17.982;2022-07-06T01:16:59;5.03;;;1.17;;
50363;SDS011;36272;59.400;17.982;2022-07-06T01:22:01;7.75;;;1.40;;
50363;SDS011;36272;59.400;17.982;2022-07-06T01:27:04;7.32;;;1.52;;
50363;SDS011;36272;59.400;17.982;2022-07-06T01:32:06;11.82;;;2.13;;
50363;SDS011;36272;59.400;17.982;2022-07-06T01:37:08;5.28;;;1.45;;
50363;SDS011;36272;59.400;17.982;2022-07-06T01:42:09;5.15;;;1.50;;
50363;SDS011;36272;59.400;17.982;2022-07-06T01:47:11;9.93;;;1.75;;
50363;SDS011;36272;59.400;17.982;2022-07-06T01:52:13;7.53;;;1.40;;
50363;SDS011;36272;59.400;17.982;2022-07-06T01:57:15;6.78;;;1.27;;
50363;SDS011;36272;59.400;17.982;2022-07-06T02:02:16;9.10;;;1.77;;
50363;SDS011;36272;59.400;17.982;2022-07-06T02:07:18;6.68;;;1.42;;
50363;SDS011;36272;59.400;17.982;2022-07-06T02:12:20;3.42;;;1.27;;
50363;SDS011;36272;59.400;17.982;2022-07-06T02:17:22;9.82;;;2.15;;
50363;SDS011;36272;59.400;17.982;2022-07-06T02:22:24;6.63;;;1.70;;
50363;SDS011;36272;59.400;17.982;2022-07-06T02:27:25;4.28;;;1.50;;
50363;SDS011;36272;59.400;17.982;2022-07-06T02:32:27;5.18;;;1.70;;
50363;SDS011;36272;59.400;17.982;2022-07-06T02:37:29;7.05;;;1.80;;
50363;SDS011;36272;59.400;17.982;2022-07-06T02:42:31;8.73;;;1.65;;
50363;SDS011;36272;59.400;17.982;2022-07-06T02:47:32;11.10;;;1.83;;
50363;SDS011;36272;59.400;17.982;2022-07-06T02:52:34;7.35;;;1.48;;
50363;SDS011;36272;59.400;17.982;2022-07-06T02:57:35;6.95;;;1.60;;
50363;SDS011;36272;59.400;17.982;2022-07-06T03:02:37;8.73;;;1.60;;
50363;SDS011;36272;59.400;17.982;2022-07-06T03:07:39;9.73;;;2.00;;
50363;SDS011;36272;59.400;17.982;2022-07-06T03:12:40;14.45;;;2.10;;
50363;SDS011;36272;59.400;17.982;2022-07-06T03:17:42;5.03;;;1.52;;
50363;SDS011;36272;59.400;17.982;2022-07-06T03:22:44;9.48;;;2.30;;
50363;SDS011;36272;59.400;17.982;2022-07-06T03:27:45;8.38;;;2.08;;
50363;SDS011;36272;59.400;17.982;2022-07-06T03:32:47;9.50;;;2.50;;
50363;SDS011;36272;59.400;17.982;2022-07-06T03:37:49;9.02;;;1.92;;
50363;SDS011;36272;59.400;17.982;2022-07-06T03:42:50;7.60;;;2.03;;
50363;SDS011;36272;59.400;17.982;2022-07-06T03:47:52;9.48;;;1.90;;
50363;SDS011;36272;59.400;17.982;2022-07-06T03:52:53;11.35;;;2.60;;
50363;SDS011;36272;59.400;17.982;2022-07-06T03:57:55;9.18;;;2.42;;
50363;SDS011;36272;59.400;17.982;2022-07-06T04:02:58;11.20;;;2.10;;
50363;SDS011;36272;59.400;17.982;2022-07-06T04:07:59;8.00;;;1.98;;
50363;SDS011;36272;59.400;17.982;2022-07-06T04:13:01;10.15;;;2.10;;
50363;SDS011;36272;59.400;17.982;2022-07-06T04:18:03;12.88;;;2.05;;
50363;SDS011;36272;59.400;17.982;2022-07-06T04:23:05;6.85;;;2.00;;
50363;SDS011;36272;59.400;17.982;2022-07-06T04:28:06;8.70;;;2.10;;
50363;SDS011;36272;59.400;17.982;2022-07-06T04:33:08;8.23;;;2.13;;
50363;SDS011;36272;59.400;17.982;2022-07-06T04:38:10;9.80;;;2.25;;
50363;SDS011;36272;59.400;17.982;2022-07-06T04:43:12;8.82;;;2.55;;
50363;SDS011;36272;59.400;17.982;2022-07-06T04:48:13;11.20;;;1.95;;
50363;SDS011;36272;59.400;17.982;2022-07-06T04:53:15;9.43;;;2.30;;
50363;SDS011;36272;59.400;17.982;2022-07-06T04:58:17;10.93;;;2.17;;
50363;SDS011;36272;59.400;17.982;2022-07-06T05:03:18;10.93;;;3.00;;
50363;SDS011;36272;59.400;17.982;2022-07-06T05:08:20;13.32;;;2.50;;
50363;SDS011;36272;59.400;17.982;2022-07-06T05:13:22;9.10;;;2.20;;
50363;SDS011;36272;59.400;17.982;2022-07-06T05:18:24;9.00;;;2.08;;
50363;SDS011;36272;59.400;17.982;2022-07-06T05:23:26;8.50;;;1.80;;
50363;SDS011;36272;59.400;17.982;2022-07-06T05:28:31;7.53;;;1.60;;
50363;SDS011;36272;59.400;17.982;2022-07-06T05:33:32;9.50;;;2.20;;
50363;SDS011;36272;59.400;17.982;2022-07-06T05:38:34;7.32;;;2.25;;
50363;SDS011;36272;59.400;17.982;2022-07-06T05:43:36;7.80;;;1.83;;
50363;SDS011;36272;59.400;17.982;2022-07-06T05:48:38;10.55;;;2.08;;
50363;SDS011;36272;59.400;17.982;2022-07-06T05:54:09;8.43;;;1.88;;
50363;SDS011;36272;59.400;17.982;2022-07-06T05:59:11;10.18;;;1.73;;
50363;SDS011;36272;59.400;17.982;2022-07-06T06:04:12;14.80;;;2.58;;
50363;SDS011;36272;59.400;17.982;2022-07-06T06:09:14;9.40;;;2.45;;
50363;SDS011;36272;59.400;17.982;2022-07-06T06:14:16;4.93;;;1.73;;
50363;SDS011;36272;59.400;17.982;2022-07-06T06:19:17;10.85;;;1.92;;
50363;SDS011;36272;59.400;17.982;2022-07-06T06:24:19;10.07;;;1.58;;
50363;SDS011;36272;59.400;17.982;2022-07-06T06:29:23;11.60;;;2.40;;
50363;SDS011;36272;59.400;17.982;2022-07-06T06:34:25;6.65;;;1.90;;
50363;SDS011;36272;59.400;17.982;2022-07-06T06:39:29;7.97;;;2.08;;
50363;SDS011;36272;59.400;17.982;2022-07-06T06:44:33;8.63;;;1.70;;
50363;SDS011;36272;59.400;17.982;2022-07-06T06:49:35;6.28;;;1.70;;
50363;SDS011;36272;59.400;17.982;2022-07-06T06:54:37;7.65;;;1.77;;
50363;SDS011;36272;59.400;17.982;2022-07-06T06:59:38;9.75;;;2.08;;
50363;SDS011;36272;59.400;17.982;2022-07-06T07:04:40;12.70;;;1.80;;
50363;SDS011;36272;59.400;17.982;2022-07-06T07:09:42;6.38;;;1.77;;
50363;SDS011;36272;59.400;17.982;2022-07-06T07:14:43;6.85;;;2.30;;
50363;SDS011;36272;59.400;17.982;2022-07-06T07:19:45;10.65;;;2.13;;
50363;SDS011;36272;59.400;17.982;2022-07-06T07:24:47;8.40;;;1.63;;
50363;SDS011;36272;59.400;17.982;2022-07-06T07:30:01;6.97;;;1.88;;
50363;SDS011;36272;59.400;17.982;2022-07-06T07:35:04;6.05;;;1.67;;
50363;SDS011;36272;59.400;17.982;2022-07-06T07:40:06;7.22;;;1.90;;
50363;SDS011;36272;59.400;17.982;2022-07-06T07:45:21;6.75;;;1.50;;
50363;SDS011;36272;59.400;17.982;2022-07-06T07:50:22;6.45;;;1.65;;
50363;SDS011;36272;59.400;17.982;2022-07-06T07:55:24;6.32;;;1.45;;
50363;SDS011;36272;59.400;17.982;2022-07-06T08:00:29;6.03;;;1.70;;
50363;SDS011;36272;59.400;17.982;2022-07-06T08:05:30;6.55;;;1.38;;
50363;SDS011;36272;59.400;17.982;2022-07-06T08:10:32;4.65;;;1.50;;
50363;SDS011;36272;59.400;17.982;2022-07-06T08:15:34;8.60;;;1.70;;
50363;SDS011;36272;59.400;17.982;2022-07-06T08:20:36;3.38;;;0.90;;
50363;SDS011;36272;59.400;17.982;2022-07-06T08:25:38;5.57;;;1.67;;
50363;SDS011;36272;59.400;17.982;2022-07-06T08:30:40;4.22;;;1.17;;
50363;SDS011;36272;59.400;17.982;2022-07-06T08:35:41;7.35;;;1.33;;
50363;SDS011;36272;59.400;17.982;2022-07-06T08:46:28;9.20;;;1.40;;
50363;SDS011;36272;59.400;17.982;2022-07-06T08:51:30;5.18;;;1.00;;
50363;SDS011;36272;59.400;17.982;2022-07-06T08:56:36;8.48;;;1.30;;
50363;SDS011;36272;59.400;17.982;2022-07-06T09:01:39;5.72;;;1.60;;
50363;SDS011;36272;59.400;17.982;2022-07-06T09:06:42;4.28;;;1.27;;
50363;SDS011;36272;59.400;17.982;2022-07-06T09:11:46;4.90;;;1.33;;
50363;SDS011;36272;59.400;17.982;2022-07-06T09:16:52;5.63;;;1.25;;
50363;SDS011;36272;59.400;17.982;2022-07-06T09:22:04;6.88;;;0.85;;
50363;SDS011;36272;59.400;17.982;2022-07-06T09:27:15;9.15;;;1.13;;
50363;SDS011;36272;59.400;17.982;2022-07-06T09:32:19;3.53;;;1.05;;
50363;SDS011;36272;59.400;17.982;2022-07-06T09:37:22;3.20;;;0.95;;
50363;SDS011;36272;59.400;17.982;2022-07-06T09:42:27;5.10;;;0.88;;
50363;SDS011;36272;59.400;17.982;2022-07-06T09:47:29;3.10;;;0.95;;
50363;SDS011;36272;59.400;17.982;2022-07-06T09:52:35;4.68;;;1.00;;
50363;SDS011;36272;59.400;17.982;2022-07-06T09:57:37;6.43;;;1.42;;
50363;SDS011;36272;59.400;17.982;2022-07-06T10:02:39;6.72;;;0.95;;
50363;SDS011;36272;59.400;17.982;2022-07-06T10:07:41;5.25;;;1.63;;
50363;SDS011;36272;59.400;17.982;2022-07-06T10:12:44;6.80;;;1.58;;
50363;SDS011;36272;59.400;17.982;2022-07-06T10:17:50;6.82;;;1.13;;
50363;SDS011;36272;59.400;17.982;2022-07-06T10:22:53;4.47;;;1.20;;
50363;SDS011;36272;59.400;17.982;2022-07-06T10:27:56;3.20;;;1.05;;
50363;SDS011;36272;59.400;17.982;2022-07-06T10:32:57;6.57;;;1.70;;
50363;SDS011;36272;59.400;17.982;2022-07-06T10:38:07;8.25;;;1.35;;
50363;SDS011;36272;59.400;17.982;2022-07-06T10:43:09;6.78;;;0.80;;
50363;SDS011;36272;59.400;17.982;2022-07-06T10:54:17;4.90;;;1.00;;
50363;SDS011;36272;59.400;17.982;2022-07-06T10:58:56;4.53;;;1.02;;
50363;SDS011;36272;59.400;17.982;2022-07-06T11:09:04;7.13;;;1.30;;
50363;SDS011;36272;59.400;17.982;2022-07-06T11:14:16;1.80;;;0.68;;
50363;SDS011;36272;59.400;17.982;2022-07-06T11:19:22;2.22;;;1.02;;
50363;SDS011;36272;59.400;17.982;2022-07-06T11:24:31;2.10;;;0.77;;
50363;SDS011;36272;59.400;17.982;2022-07-06T11:29:34;5.10;;;0.88;;
50363;SDS011;36272;59.400;17.982;2022-07-06T11:40:43;3.33;;;0.93;;
50363;SDS011;36272;59.400;17.982;2022-07-06T11:45:48;2.53;;;1.00;;
50363;SDS011;36272;59.400;17.982;2022-07-06T11:56:59;3.42;;;1.30;;
50363;SDS011;36272;59.400;17.982;2022-07-06T12:02:31;4.28;;;1.08;;
50363;SDS011;36272;59.400;17.982;2022-07-06T12:07:38;2.75;;;1.00;;
50363;SDS011;36272;59.400;17.982;2022-07-06T12:12:40;2.63;;;0.70;;
50363;SDS011;36272;59.400;17.982;2022-07-06T12:17:46;2.30;;;0.60;;
50363;SDS011;36272;59.400;17.982;2022-07-06T12:22:49;5.68;;;0.80;;
50363;SDS011;36272;59.400;17.982;2022-07-06T12:27:50;4.50;;;0.95;;
50363;SDS011;36272;59.400;17.982;2022-07-06T12:38:23;2.80;;;0.75;;
50363;SDS011;36272;59.400;17.982;2022-07-06T12:43:35;4.03;;;0.73;;
50363;SDS011;36272;59.400;17.982;2022-07-06T12:48:56;2.70;;;0.75;;
50363;SDS011;36272;59.400;17.982;2022-07-06T12:54:11;2.42;;;0.77;;
50363;SDS011;36272;59.400;17.982;2022-07-06T12:59:21;2.63;;;0.70;;
50363;SDS011;36272;59.400;17.982;2022-07-06T13:10:32;2.65;;;0.82;;
50363;SDS011;36272;59.400;17.982;2022-07-06T13:15:37;4.32;;;0.52;;
50363;SDS011;36272;59.400;17.982;2022-07-06T13:20:38;10.93;;;1.48;;
50363;SDS011;36272;59.400;17.982;2022-07-06T13:25:40;3.90;;;0.70;;
50363;SDS011;36272;59.400;17.982;2022-07-06T13:30:44;2.50;;;1.13;;
50363;SDS011;36272;59.400;17.982;2022-07-06T13:35:46;6.72;;;0.60;;
50363;SDS011;36272;59.400;17.982;2022-07-06T13:40:47;1.50;;;0.50;;
50363;SDS011;36272;59.400;17.982;2022-07-06T13:45:49;2.28;;;0.68;;
50363;SDS011;36272;59.400;17.982;2022-07-06T13:56:36;1.88;;;0.90;;
50363;SDS011;36272;59.400;17.982;2022-07-06T14:01:39;6.20;;;0.95;;
50363;SDS011;36272;59.400;17.982;2022-07-06T14:06:40;2.95;;;0.90;;
50363;SDS011;36272;59.400;17.982;2022-07-06T14:11:44;2.47;;;0.47;;
50363;SDS011;36272;59.400;17.982;2022-07-06T14:16:49;2.20;;;0.60;;
50363;SDS011;36272;59.400;17.982;2022-07-06T14:27:21;2.13;;;0.60;;
50363;SDS011;36272;59.400;17.982;2022-07-06T14:32:46;2.30;;;0.65;;
50363;SDS011;36272;59.400;17.982;2022-07-06T14:37:48;2.17;;;0.40;;
50363;SDS011;36272;59.400;17.982;2022-07-06T14:42:50;1.70;;;0.60;;
50363;SDS011;36272;59.400;17.982;2022-07-06T14:48:01;4.75;;;0.70;;
50363;SDS011;36272;59.400;17.982;2022-07-06T14:53:05;3.00;;;0.55;;
50363;SDS011;36272;59.400;17.982;2022-07-06T14:58:09;1.08;;;0.38;;
50363;SDS011;36272;59.400;17.982;2022-07-06T15:03:14;2.72;;;0.77;;
50363;SDS011;36272;59.400;17.982;2022-07-06T15:08:27;6.63;;;0.55;;
50363;SDS011;36272;59.400;17.982;2022-07-06T15:13:29;4.82;;;0.70;;
50363;SDS011;36272;59.400;17.982;2022-07-06T15:18:31;1.17;;;0.38;;
50363;SDS011;36272;59.400;17.982;2022-07-06T15:23:32;4.55;;;0.60;;
50363;SDS011;36272;59.400;17.982;2022-07-06T15:28:41;7.13;;;1.05;;
50363;SDS011;36272;59.400;17.982;2022-07-06T15:33:43;3.42;;;0.90;;
50363;SDS011;36272;59.400;17.982;2022-07-06T15:38:47;2.08;;;1.00;;
50363;SDS011;36272;59.400;17.982;2022-07-06T15:43:59;3.17;;;0.88;;
50363;SDS011;36272;59.400;17.982;2022-07-06T15:49:03;4.07;;;0.88;;
50363;SDS011;36272;59.400;17.982;2022-07-06T15:54:05;3.90;;;0.70;;
50363;SDS011;36272;59.400;17.982;2022-07-06T15:59:06;2.47;;;0.70;;
50363;SDS011;36272;59.400;17.982;2022-07-06T16:04:08;4.97;;;1.25;;
50363;SDS011;36272;59.400;17.982;2022-07-06T16:09:11;3.15;;;0.93;;
50363;SDS011;36272;59.400;17.982;2022-07-06T16:14:13;4.10;;;1.52;;
50363;SDS011;36272;59.400;17.982;2022-07-06T16:19:15;4.72;;;1.17;;
50363;SDS011;36272;59.400;17.982;2022-07-06T16:24:16;4.43;;;1.17;;
50363;SDS011;36272;59.400;17.982;2022-07-06T16:29:18;3.22;;;1.05;;
50363;SDS011;36272;59.400;17.982;2022-07-06T16:34:20;1.52;;;0.80;;
50363;SDS011;36272;59.400;17.982;2022-07-06T16:39:24;3.25;;;0.90;;
50363;SDS011;36272;59.400;17.982;2022-07-06T16:44:29;6.90;;;3.13;;
50363;SDS011;36272;59.400;17.982;2022-07-06T16:49:30;2.83;;;1.23;;
50363;SDS011;36272;59.400;17.982;2022-07-06T16:54:32;1.92;;;1.08;;
50363;SDS011;36272;59.400;17.982;2022-07-06T16:59:34;3.88;;;1.17;;
50363;SDS011;36272;59.400;17.982;2022-07-06T17:04:35;3.08;;;1.10;;
50363;SDS011;36272;59.400;17.982;2022-07-06T17:09:37;2.72;;;0.77;;
50363;SDS011;36272;59.400;17.982;2022-07-06T17:14:39;2.13;;;0.85;;
50363;SDS011;36272;59.400;17.982;2022-07-06T17:19:43;2.22;;;1.27;;
50363;SDS011;36272;59.400;17.982;2022-07-06T17:24:47;2.90;;;1.00;;
50363;SDS011;36272;59.400;17.982;2022-07-06T17:29:48;10.05;;;1.17;;
50363;SDS011;36272;59.400;17.982;2022-07-06T17:34:50;2.85;;;1.10;;
50363;SDS011;36272;59.400;17.982;2022-07-06T17:39:52;2.83;;;0.63;;
50363;SDS011;36272;59.400;17.982;2022-07-06T17:44:53;4.03;;;1.15;;
50363;SDS011;36272;59.400;17.982;2022-07-06T17:50:10;4.28;;;1.05;;
50363;SDS011;36272;59.400;17.982;2022-07-06T17:55:14;8.38;;;1.42;;
50363;SDS011;36272;59.400;17.982;2022-07-06T18:00:16;2.95;;;1.13;;
50363;SDS011;36272;59.400;17.982;2022-07-06T18:05:18;1.98;;;1.00;;
50363;SDS011;36272;59.400;17.982;2022-07-06T18:10:20;5.53;;;1.17;;
50363;SDS011;36272;59.400;17.982;2022-07-06T18:15:22;4.45;;;1.33;;
50363;SDS011;36272;59.400;17.982;2022-07-06T18:20:24;7.45;;;1.33;;
50363;SDS011;36272;59.400;17.982;2022-07-06T18:25:26;5.55;;;1.27;;
50363;SDS011;36272;59.400;17.982;2022-07-06T18:30:27;11.77;;;1.60;;
50363;SDS011;36272;59.400;17.982;2022-07-06T18:35:29;9.90;;;1.42;;
50363;SDS011;36272;59.400;17.982;2022-07-06T18:40:31;5.20;;;1.55;;
50363;SDS011;36272;59.400;17.982;2022-07-06T18:45:32;3.28;;;1.20;;
50363;SDS011;36272;59.400;17.982;2022-07-06T18:50:34;4.80;;;1.10;;
50363;SDS011;36272;59.400;17.982;2022-07-06T18:55:36;3.70;;;1.25;;
50363;SDS011;36272;59.400;17.982;2022-07-06T19:00:37;7.03;;;1.45;;
50363;SDS011;36272;59.400;17.982;2022-07-06T19:05:41;4.25;;;1.00;;
50363;SDS011;36272;59.400;17.982;2022-07-06T19:10:43;3.95;;;1.60;;
50363;SDS011;36272;59.400;17.982;2022-07-06T19:15:47;5.40;;;1.00;;
50363;SDS011;36272;59.400;17.982;2022-07-06T19:20:48;3.33;;;1.05;;
50363;SDS011;36272;59.400;17.982;2022-07-06T19:25:50;2.58;;;0.93;;
50363;SDS011;36272;59.400;17.982;2022-07-06T19:30:52;3.80;;;0.88;;
50363;SDS011;36272;59.400;17.982;2022-07-06T19:35:59;1.48;;;0.52;;
50363;SDS011;36272;59.400;17.982;2022-07-06T19:41:01;0.65;;;0.52;;
50363;SDS011;36272;59.400;17.982;2022-07-06T19:46:03;3.10;;;1.15;;
50363;SDS011;36272;59.400;17.982;2022-07-06T19:51:05;2.10;;;0.40;;
50363;SDS011;36272;59.400;17.982;2022-07-06T19:56:19;2.05;;;0.57;;
50363;SDS011;36272;59.400;17.982;2022-07-06T20:01:24;2.22;;;0.80;;
50363;SDS011;36272;59.400;17.982;2022-07-06T20:06:29;1.55;;;0.70;;
50363;SDS011;36272;59.400;17.982;2022-07-06T20:11:35;2.00;;;0.47;;
50363;SDS011;36272;59.400;17.982;2022-07-06T20:16:37;1.90;;;0.40;;
50363;SDS011;36272;59.400;17.982;2022-07-06T20:21:41;1.13;;;0.30;;
50363;SDS011;36272;59.400;17.982;2022-07-06T20:26:43;1.08;;;0.45;;
50363;SDS011;36272;59.400;17.982;2022-07-06T20:31:48;0.35;;;0.30;;
50363;SDS011;36272;59.400;17.982;2022-07-06T20:36:50;1.70;;;0.60;;
50363;SDS011;36272;59.400;17.982;2022-07-06T20:41:55;2.77;;;0.43;;
50363;SDS011;36272;59.400;17.982;2022-07-06T20:46:59;0.85;;;0.38;;
50363;SDS011;36272;59.400;17.982;2022-07-06T20:52:01;1.77;;;0.43;;
50363;SDS011;36272;59.400;17.982;2022-07-06T20:57:05;0.50;;;0.30;;
50363;SDS011;36272;59.400;17.982;2022-07-06T21:02:07;1.35;;;0.35;;
50363;SDS011;36272;59.400;17.982;2022-07-06T21:07:09;0.60;;;0.20;;
50363;SDS011;36272;59.400;17.982;2022-07-06T21:12:10;2.38;;;0.63;;
50363;SDS011;36272;59.400;17.982;2022-07-06T21:17:12;1.98;;;0.30;;
50363;SDS011;36272;59.400;17.982;2022-07-06T21:22:14;1.90;;;0.57;;
50363;SDS011;36272;59.400;17.982;2022-07-06T21:27:16;2.47;;;0.55;;
50363;SDS011;36272;59.400;17.982;2022-07-06T21:32:17;1.63;;;0.68;;
50363;SDS011;36272;59.400;17.982;2022-07-06T21:37:19;0.93;;;0.30;;
50363;SDS011;36272;59.400;17.982;2022-07-06T21:42:22;1.85;;;0.32;;
50363;SDS011;36272;59.400;17.982;2022-07-06T21:47:23;2.58;;;0.80;;
50363;SDS011;36272;59.400;17.982;2022-07-06T21:52:28;3.33;;;0.77;;
50363;SDS011;36272;59.400;17.982;2022-07-06T21:57:30;3.35;;;0.57;;
50363;SDS011;36272;59.400;17.982;2022-07-06T22:02:31;3.83;;;0.52;;
50363;SDS011;36272;59.400;17.982;2022-07-06T22:07:33;3.00;;;0.70;;
50363;SDS011;36272;59.400;17.982;2022-07-06T22:12:37;4.45;;;0.70;;
50363;SDS011;36272;59.400;17.982;2022-07-06T22:17:41;1.77;;;0.68;;
50363;SDS011;36272;59.400;17.982;2022-07-06T22:22:46;2.42;;;0.90;;
50363;SDS011;36272;59.400;17.982;2022-07-06T22:27:56;5.10;;;0.68;;
50363;SDS011;36272;59.400;17.982;2022-07-06T22:32:57;3.17;;;0.93;;
50363;SDS011;36272;59.400;17.982;2022-07-06T22:37:59;1.38;;;0.50;;
50363;SDS011;36272;59.400;17.982;2022-07-06T22:43:00;3.72;;;0.82;;
50363;SDS011;36272;59.400;17.982;2022-07-06T22:48:02;5.55;;;0.75;;
50363;SDS011;36272;59.400;17.982;2022-07-06T22:53:04;2.88;;;0.80;;
50363;SDS011;36272;59.400;17.982;2022-07-06T22:58:08;2.13;;;0.60;;
50363;SDS011;36272;59.400;17.982;2022-07-06T23:03:10;3.35;;;1.00;;
50363;SDS011;36272;59.400;17.982;2022-07-06T23:08:14;3.47;;;0.90;;
50363;SDS011;36272;59.400;17.982;2022-07-06T23:13:19;3.72;;;0.80;;
50363;SDS011;36272;59.400;17.982;2022-07-06T23:18:21;2.53;;;0.65;;
50363;SDS011;36272;59.400;17.982;2022-07-06T23:23:22;7.38;;;1.08;;
50363;SDS011;36272;59.400;17.982;2022-07-06T23:28:25;7.28;;;1.15;;
50363;SDS011;36272;59.400;17.982;2022-07-06T23:33:37;6.60;;;1.33;;
50363;SDS011;36272;59.400;17.982;2022-07-06T23:38:38;4.45;;;1.10;;
50363;SDS011;36272;59.400;17.982;2022-07-06T23:43:40;5.22;;;0.82;;
50363;SDS011;36272;59.400;17.982;2022-07-06T23:48:42;7.88;;;0.90;;
50363;SDS011;36272;59.400;17.982;2022-07-06T23:53:43;4.60;;;1.00;;
50363;SDS011;36272;59.400;17.982;2022-07-06T23:58:45;4.47;;;1.00;;
